sensor_id;sensor_type;location;lat;lon;timestamp;pressure;altitude;pressure_sealevel;temperature;humidity
11605;BME280;5858;43.076;25.626;2023-05-25T00:00:32;99133.69;;;16.15;99.47
11605;BME280;5858;43.076;25.626;2023-05-25T00:03:00;99042.72;;;15.61;99.87
11605;BME280;5858;43.076;25.626;2023-05-25T00:05:31;99096.47;;;15.81;100.00
11605;BME280;5858;43.076;25.626;2023-05-25T00:07:57;99159.28;;;16.13;100.00
11605;BME280;5858;43.076;25.626;2023-05-25T00:10:25;99082.94;;;15.62;100.00
11605;BME280;5858;43.076;25.626;2023-05-25T00:12:52;99054.53;;;15.60;100.00
11605;BME280;5858;43.076;25.626;2023-05-25T00:15:21;99125.78;;;15.95;100.00
11605;BME280;5858;43.076;25.626;2023-05-25T00:17:48;99115.06;;;16.07;100.00
11605;BME280;5858;43.076;25.626;2023-05-25T00:20:16;99028.00;;;15.32;100.00
11605;BME280;5858;43.076;25.626;2023-05-25T00:22:43;99172.84;;;16.24;100.00
11605;BME280;5858;43.076;25.626;2023-05-25T00:25:11;99060.53;;;15.62;100.00
11605;BME280;5858;43.076;25.626;2023-05-25T00:27:38;99171.88;;;16.37;100.00
11605;BME280;5858;43.076;25.626;2023-05-25T00:30:06;99124.56;;;16.16;99.94
11605;BME280;5858;43.076;25.626;2023-05-25T00:32:33;99154.09;;;16.29;100.00
11605;BME280;5858;43.076;25.626;2023-05-25T00:35:03;99178.16;;;16.13;100.00
11605;BME280;5858;43.076;25.626;2023-05-25T00:37:32;99094.88;;;15.73;100.00
11605;BME280;5858;43.076;25.626;2023-05-25T00:39:59;99065.19;;;15.48;100.00
11605;BME280;5858;43.076;25.626;2023-05-25T00:42:26;99168.00;;;16.08;100.00
11605;BME280;5858;43.076;25.626;2023-05-25T00:44:53;99116.84;;;15.77;100.00
11605;BME280;5858;43.076;25.626;2023-05-25T00:47:20;99018.63;;;15.09;100.00
11605;BME280;5858;43.076;25.626;2023-05-25T00:49:48;99166.25;;;15.95;100.00
11605;BME280;5858;43.076;25.626;2023-05-25T00:52:15;99131.28;;;15.64;100.00
11605;BME280;5858;43.076;25.626;2023-05-25T00:54:47;99086.69;;;15.30;100.00
11605;BME280;5858;43.076;25.626;2023-05-25T00:57:19;99038.41;;;14.72;100.00
11605;BME280;5858;43.076;25.626;2023-05-25T00:59:50;99097.53;;;15.23;100.00
11605;BME280;5858;43.076;25.626;2023-05-25T01:02:19;99180.66;;;15.64;100.00
11605;BME280;5858;43.076;25.626;2023-05-25T01:04:52;99081.22;;;15.11;100.00
11605;BME280;5858;43.076;25.626;2023-05-25T01:07:21;99138.38;;;15.52;100.00
11605;BME280;5858;43.076;25.626;2023-05-25T01:09:57;99143.91;;;15.32;100.00
11605;BME280;5858;43.076;25.626;2023-05-25T01:12:27;99161.13;;;15.69;100.00
11605;BME280;5858;43.076;25.626;2023-05-25T01:14:55;99142.94;;;15.51;100.00
11605;BME280;5858;43.076;25.626;2023-05-25T01:17:22;99078.25;;;14.95;100.00
11605;BME280;5858;43.076;25.626;2023-05-25T01:19:49;99085.06;;;14.97;100.00
11605;BME280;5858;43.076;25.626;2023-05-25T01:22:21;99100.63;;;14.95;100.00
11605;BME280;5858;43.076;25.626;2023-05-25T01:24:53;99096.00;;;15.02;100.00
11605;BME280;5858;43.076;25.626;2023-05-25T01:27:26;99138.25;;;15.40;100.00
11605;BME280;5858;43.076;25.626;2023-05-25T01:29:57;98997.16;;;14.33;100.00
11605;BME280;5858;43.076;25.626;2023-05-25T01:32:27;98993.59;;;14.39;100.00
11605;BME280;5858;43.076;25.626;2023-05-25T01:34:58;99058.91;;;14.73;100.00
11605;BME280;5858;43.076;25.626;2023-05-25T01:37:30;99191.88;;;15.55;100.00
11605;BME280;5858;43.076;25.626;2023-05-25T01:40:01;99072.69;;;14.90;100.00
11605;BME280;5858;43.076;25.626;2023-05-25T01:42:31;99007.50;;;14.36;100.00
11605;BME280;5858;43.076;25.626;2023-05-25T01:44:58;99141.72;;;15.22;100.00
11605;BME280;5858;43.076;25.626;2023-05-25T01:47:38;99068.69;;;14.67;100.00
11605;BME280;5858;43.076;25.626;2023-05-25T01:50:13;99140.94;;;15.15;100.00
11605;BME280;5858;43.076;25.626;2023-05-25T01:52:50;99002.81;;;14.18;100.00
11605;BME280;5858;43.076;25.626;2023-05-25T01:55:21;99178.59;;;15.28;100.00
11605;BME280;5858;43.076;25.626;2023-05-25T01:57:55;99183.19;;;15.21;100.00
11605;BME280;5858;43.076;25.626;2023-05-25T02:00:23;99155.22;;;15.16;100.00
11605;BME280;5858;43.076;25.626;2023-05-25T02:02:52;99159.38;;;15.11;100.00
11605;BME280;5858;43.076;25.626;2023-05-25T02:05:20;99126.50;;;14.96;100.00
11605;BME280;5858;43.076;25.626;2023-05-25T02:07:48;99000.56;;;14.09;100.00
11605;BME280;5858;43.076;25.626;2023-05-25T02:10:15;99179.84;;;15.26;100.00
11605;BME280;5858;43.076;25.626;2023-05-25T02:12:42;99134.56;;;15.03;100.00
11605;BME280;5858;43.076;25.626;2023-05-25T02:15:14;99140.72;;;14.78;100.00
11605;BME280;5858;43.076;25.626;2023-05-25T02:17:41;99112.66;;;14.48;100.00
11605;BME280;5858;43.076;25.626;2023-05-25T02:20:09;99113.94;;;14.32;100.00
11605;BME280;5858;43.076;25.626;2023-05-25T02:22:36;99140.56;;;14.60;100.00
11605;BME280;5858;43.076;25.626;2023-05-25T02:25:06;99059.13;;;14.20;100.00
11605;BME280;5858;43.076;25.626;2023-05-25T02:27:34;99164.06;;;14.91;100.00
11605;BME280;5858;43.076;25.626;2023-05-25T02:30:02;99154.03;;;14.60;100.00
11605;BME280;5858;43.076;25.626;2023-05-25T02:32:30;99080.66;;;14.20;100.00
11605;BME280;5858;43.076;25.626;2023-05-25T02:34:58;99160.09;;;14.49;100.00
11605;BME280;5858;43.076;25.626;2023-05-25T02:37:25;99142.91;;;14.37;100.00
11605;BME280;5858;43.076;25.626;2023-05-25T02:39:52;99125.09;;;14.49;100.00
11605;BME280;5858;43.076;25.626;2023-05-25T02:42:23;99154.47;;;14.51;100.00
11605;BME280;5858;43.076;25.626;2023-05-25T02:44:50;99113.97;;;14.19;100.00
11605;BME280;5858;43.076;25.626;2023-05-25T02:47:21;99030.06;;;13.77;100.00
11605;BME280;5858;43.076;25.626;2023-05-25T02:49:52;99133.81;;;14.31;100.00
11605;BME280;5858;43.076;25.626;2023-05-25T02:52:19;99166.44;;;14.61;100.00
11605;BME280;5858;43.076;25.626;2023-05-25T02:54:47;99206.88;;;15.06;100.00
11605;BME280;5858;43.076;25.626;2023-05-25T02:57:14;99056.47;;;14.00;100.00
11605;BME280;5858;43.076;25.626;2023-05-25T02:59:43;99203.53;;;15.17;100.00
11605;BME280;5858;43.076;25.626;2023-05-25T03:02:11;99091.59;;;14.18;100.00
11605;BME280;5858;43.076;25.626;2023-05-25T03:04:38;99083.34;;;14.20;100.00
11605;BME280;5858;43.076;25.626;2023-05-25T03:07:06;99201.97;;;14.96;100.00
11605;BME280;5858;43.076;25.626;2023-05-25T03:09:33;99163.28;;;14.84;100.00
11605;BME280;5858;43.076;25.626;2023-05-25T03:12:00;99213.50;;;15.17;100.00
11605;BME280;5858;43.076;25.626;2023-05-25T03:14:27;99136.75;;;14.81;100.00
11605;BME280;5858;43.076;25.626;2023-05-25T03:16:56;99135.06;;;15.25;97.68
11605;BME280;5858;43.076;25.626;2023-05-25T03:19:23;99233.91;;;16.25;96.04
11605;BME280;5858;43.076;25.626;2023-05-25T03:21:50;99222.72;;;16.65;94.65
11605;BME280;5858;43.076;25.626;2023-05-25T03:24:17;99083.44;;;15.96;90.71
11605;BME280;5858;43.076;25.626;2023-05-25T03:26:44;99100.63;;;16.56;88.69
11605;BME280;5858;43.076;25.626;2023-05-25T03:29:11;99110.47;;;16.69;86.58
11605;BME280;5858;43.076;25.626;2023-05-25T03:31:38;99241.97;;;17.72;86.10
11605;BME280;5858;43.076;25.626;2023-05-25T03:34:10;99276.16;;;17.96;84.53
11605;BME280;5858;43.076;25.626;2023-05-25T03:36:37;99165.50;;;17.88;83.97
11605;BME280;5858;43.076;25.626;2023-05-25T03:39:10;99085.47;;;17.80;81.87
11605;BME280;5858;43.076;25.626;2023-05-25T03:41:37;99257.41;;;19.23;79.02
11605;BME280;5858;43.076;25.626;2023-05-25T03:44:04;99189.44;;;19.01;77.76
11605;BME280;5858;43.076;25.626;2023-05-25T03:46:32;99229.94;;;19.76;75.65
11605;BME280;5858;43.076;25.626;2023-05-25T03:48:59;99258.38;;;20.36;72.87
11605;BME280;5858;43.076;25.626;2023-05-25T03:51:28;99270.13;;;20.75;71.22
11605;BME280;5858;43.076;25.626;2023-05-25T03:53:57;99185.00;;;20.74;69.40
11605;BME280;5858;43.076;25.626;2023-05-25T03:56:24;99216.94;;;21.06;68.16
11605;BME280;5858;43.076;25.626;2023-05-25T03:58:51;99097.59;;;20.66;65.51
11605;BME280;5858;43.076;25.626;2023-05-25T04:01:24;99231.97;;;21.57;64.82
11605;BME280;5858;43.076;25.626;2023-05-25T04:03:56;99109.63;;;20.70;64.64
11605;BME280;5858;43.076;25.626;2023-05-25T04:06:23;99109.75;;;20.58;65.49
11605;BME280;5858;43.076;25.626;2023-05-25T04:08:53;99225.81;;;20.96;66.16
11605;BME280;5858;43.076;25.626;2023-05-25T04:11:22;99155.47;;;20.39;67.17
11605;BME280;5858;43.076;25.626;2023-05-25T04:13:53;99254.66;;;20.97;68.20
11605;BME280;5858;43.076;25.626;2023-05-25T04:16:20;99107.50;;;19.95;68.53
11605;BME280;5858;43.076;25.626;2023-05-25T04:18:48;99108.59;;;19.94;69.22
11605;BME280;5858;43.076;25.626;2023-05-25T04:21:17;99160.94;;;20.28;69.32
11605;BME280;5858;43.076;25.626;2023-05-25T04:23:48;99264.84;;;20.85;69.89
11605;BME280;5858;43.076;25.626;2023-05-25T04:26:20;99235.81;;;20.52;68.95
11605;BME280;5858;43.076;25.626;2023-05-25T04:28:53;99188.91;;;20.06;69.71
11605;BME280;5858;43.076;25.626;2023-05-25T04:34:31;99266.88;;;20.95;68.82
11605;BME280;5858;43.076;25.626;2023-05-25T04:40:30;99196.09;;;20.90;67.42
11605;BME280;5858;43.076;25.626;2023-05-25T04:43:34;99133.34;;;20.53;65.38
11605;BME280;5858;43.076;25.626;2023-05-25T04:46:08;99191.06;;;21.03;66.21
11605;BME280;5858;43.076;25.626;2023-05-25T04:51:11;99181.81;;;21.26;64.38
11605;BME280;5858;43.076;25.626;2023-05-25T04:53:38;99267.78;;;21.98;64.41
11605;BME280;5858;43.076;25.626;2023-05-25T04:56:23;99243.00;;;21.99;63.57
11605;BME280;5858;43.076;25.626;2023-05-25T04:58:55;99222.16;;;21.83;63.39
11605;BME280;5858;43.076;25.626;2023-05-25T05:01:24;99178.66;;;21.93;62.03
11605;BME280;5858;43.076;25.626;2023-05-25T05:03:53;99270.97;;;22.49;60.85
11605;BME280;5858;43.076;25.626;2023-05-25T05:06:21;99271.16;;;22.74;61.24
11605;BME280;5858;43.076;25.626;2023-05-25T05:08:52;99147.75;;;22.15;59.65
11605;BME280;5858;43.076;25.626;2023-05-25T05:11:22;99266.44;;;23.12;57.65
11605;BME280;5858;43.076;25.626;2023-05-25T05:13:58;99279.69;;;23.45;58.17
11605;BME280;5858;43.076;25.626;2023-05-25T05:16:36;99175.66;;;22.74;56.30
11605;BME280;5858;43.076;25.626;2023-05-25T05:19:26;99244.66;;;23.22;56.06
11605;BME280;5858;43.076;25.626;2023-05-25T05:21:55;99138.06;;;22.29;57.95
11605;BME280;5858;43.076;25.626;2023-05-25T05:25:03;99118.81;;;22.51;57.89
11605;BME280;5858;43.076;25.626;2023-05-25T05:28:20;99116.84;;;23.09;55.69
11605;BME280;5858;43.076;25.626;2023-05-25T05:31:11;99234.19;;;24.17;53.24
11605;BME280;5858;43.076;25.626;2023-05-25T05:33:39;99237.19;;;24.56;51.91
11605;BME280;5858;43.076;25.626;2023-05-25T05:36:16;99139.31;;;24.28;49.53
11605;BME280;5858;43.076;25.626;2023-05-25T05:38:44;99193.13;;;24.53;49.61
11605;BME280;5858;43.076;25.626;2023-05-25T05:41:27;99288.50;;;25.20;49.50
11605;BME280;5858;43.076;25.626;2023-05-25T06:21:03;99283.06;;;27.29;45.45
11605;BME280;5858;43.076;25.626;2023-05-25T06:29:47;99260.56;;;27.70;43.13
11605;BME280;5858;43.076;25.626;2023-05-25T06:30:31;99284.84;;;27.20;43.93
11605;BME280;5858;43.076;25.626;2023-05-25T06:33:14;99162.75;;;25.73;46.27
11605;BME280;5858;43.076;25.626;2023-05-25T06:35:52;99332.81;;;26.41;48.00
11605;BME280;5858;43.076;25.626;2023-05-25T06:38:37;99204.19;;;25.17;48.72
11605;BME280;5858;43.076;25.626;2023-05-25T06:41:50;99328.19;;;25.92;51.73
11605;BME280;5858;43.076;25.626;2023-05-25T06:44:55;99302.13;;;25.35;51.69
11605;BME280;5858;43.076;25.626;2023-05-25T06:50:53;99169.66;;;24.06;53.06
11605;BME280;5858;43.076;25.626;2023-05-25T07:01:03;99305.84;;;24.80;57.29
11605;BME280;5858;43.076;25.626;2023-05-25T07:03:48;99193.19;;;24.27;56.96
11605;BME280;5858;43.076;25.626;2023-05-25T07:06:21;99285.88;;;24.69;54.68
11605;BME280;5858;43.076;25.626;2023-05-25T07:08:57;99222.16;;;23.72;56.01
11605;BME280;5858;43.076;25.626;2023-05-25T07:11:25;99218.06;;;23.80;56.90
11605;BME280;5858;43.076;25.626;2023-05-25T07:17:49;99210.41;;;23.82;57.00
11605;BME280;5858;43.076;25.626;2023-05-25T07:23:26;99194.53;;;23.99;55.03
11605;BME280;5858;43.076;25.626;2023-05-25T07:32:00;99332.00;;;25.37;55.67
11605;BME280;5858;43.076;25.626;2023-05-25T07:34:58;99151.06;;;24.03;54.41
11605;BME280;5858;43.076;25.626;2023-05-25T07:38:16;99329.19;;;25.57;55.74
11605;BME280;5858;43.076;25.626;2023-05-25T07:44:45;99157.88;;;24.46;52.87
11605;BME280;5858;43.076;25.626;2023-05-25T08:07:52;99333.69;;;25.28;53.83
11605;BME280;5858;43.076;25.626;2023-05-25T08:10:21;99300.50;;;25.34;52.00
11605;BME280;5858;43.076;25.626;2023-05-25T08:13:14;99339.00;;;25.73;51.13
11605;BME280;5858;43.076;25.626;2023-05-25T08:18:12;99326.03;;;25.84;49.17
11605;BME280;5858;43.076;25.626;2023-05-25T08:19:44;99186.47;;;24.89;48.27
11605;BME280;5858;43.076;25.626;2023-05-25T08:22:37;99158.31;;;24.78;50.93
11605;BME280;5858;43.076;25.626;2023-05-25T08:25:23;99333.06;;;26.06;50.67
11605;BME280;5858;43.076;25.626;2023-05-25T08:28:22;99287.34;;;25.91;50.65
11605;BME280;5858;43.076;25.626;2023-05-25T08:33:51;99310.06;;;26.70;51.05
11605;BME280;5858;43.076;25.626;2023-05-25T08:36:35;99210.13;;;26.13;48.22
11605;BME280;5858;43.076;25.626;2023-05-25T08:39:11;99138.59;;;25.75;46.65
11605;BME280;5858;43.076;25.626;2023-05-25T08:42:05;99153.75;;;25.62;47.11
11605;BME280;5858;43.076;25.626;2023-05-25T08:44:54;99168.59;;;25.56;47.28
11605;BME280;5858;43.076;25.626;2023-05-25T08:47:28;99293.47;;;26.17;47.21
11605;BME280;5858;43.076;25.626;2023-05-25T08:50:11;99263.38;;;26.07;46.21
11605;BME280;5858;43.076;25.626;2023-05-25T08:53:05;99312.88;;;26.64;47.53
11605;BME280;5858;43.076;25.626;2023-05-25T08:55:44;99250.84;;;26.34;50.57
11605;BME280;5858;43.076;25.626;2023-05-25T08:58:26;99164.09;;;25.76;49.00
11605;BME280;5858;43.076;25.626;2023-05-25T09:00:55;99280.69;;;26.70;48.97
11605;BME280;5858;43.076;25.626;2023-05-25T09:04:18;99151.19;;;25.76;46.71
11605;BME280;5858;43.076;25.626;2023-05-25T09:06:49;99118.06;;;25.72;47.69
11605;BME280;5858;43.076;25.626;2023-05-25T09:09:21;99200.94;;;26.27;46.35
11605;BME280;5858;43.076;25.626;2023-05-25T09:11:59;99194.56;;;26.37;46.68
11605;BME280;5858;43.076;25.626;2023-05-25T09:17:44;99265.84;;;27.00;45.98
11605;BME280;5858;43.076;25.626;2023-05-25T09:20:12;99214.31;;;26.87;44.56
11605;BME280;5858;43.076;25.626;2023-05-25T09:22:59;99126.50;;;25.81;42.67
11605;BME280;5858;43.076;25.626;2023-05-25T09:25:41;99128.81;;;25.64;42.61
11605;BME280;5858;43.076;25.626;2023-05-25T09:28:13;99297.34;;;26.79;45.54
11605;BME280;5858;43.076;25.626;2023-05-25T09:30:55;99287.13;;;26.84;44.72
11605;BME280;5858;43.076;25.626;2023-05-25T09:37:43;99280.97;;;26.97;43.74
11605;BME280;5858;43.076;25.626;2023-05-25T09:48:21;99108.97;;;26.35;40.50
11605;BME280;5858;43.076;25.626;2023-05-25T10:16:21;99076.81;;;26.83;37.94
11605;BME280;5858;43.076;25.626;2023-05-25T10:19:13;99216.81;;;28.06;37.39
11605;BME280;5858;43.076;25.626;2023-05-25T10:22:35;99224.50;;;28.23;37.17
11605;BME280;5858;43.076;25.626;2023-05-25T10:25:36;99173.78;;;27.64;37.95
11605;BME280;5858;43.076;25.626;2023-05-25T10:28:13;99087.09;;;27.15;38.38
11605;BME280;5858;43.076;25.626;2023-05-25T10:30:54;99059.56;;;27.53;38.16
11605;BME280;5858;43.076;25.626;2023-05-25T10:40:37;99212.28;;;28.62;38.81
11605;BME280;5858;43.076;25.626;2023-05-25T10:43:08;99032.56;;;27.87;38.67
11605;BME280;5858;43.076;25.626;2023-05-25T10:49:04;99050.00;;;27.50;37.99
11605;BME280;5858;43.076;25.626;2023-05-25T10:51:59;99077.13;;;27.19;38.65
11605;BME280;5858;43.076;25.626;2023-05-25T10:57:36;99041.47;;;26.95;40.09
11605;BME280;5858;43.076;25.626;2023-05-25T11:03:03;99195.06;;;27.16;42.22
11605;BME280;5858;43.076;25.626;2023-05-25T11:05:50;99047.22;;;25.85;42.79
11605;BME280;5858;43.076;25.626;2023-05-25T11:08:20;99120.41;;;26.42;43.04
11605;BME280;5858;43.076;25.626;2023-05-25T11:10:51;99049.31;;;25.93;43.15
11605;BME280;5858;43.076;25.626;2023-05-25T11:13:42;99182.97;;;26.69;42.53
11605;BME280;5858;43.076;25.626;2023-05-25T11:16:20;99191.72;;;26.71;41.84
11605;BME280;5858;43.076;25.626;2023-05-25T11:18:53;99047.25;;;26.32;41.71
11605;BME280;5858;43.076;25.626;2023-05-25T11:21:42;99109.97;;;27.11;41.51
11605;BME280;5858;43.076;25.626;2023-05-25T11:24:17;99093.34;;;27.02;42.19
11605;BME280;5858;43.076;25.626;2023-05-25T11:26:56;99027.22;;;26.32;41.37
11605;BME280;5858;43.076;25.626;2023-05-25T11:29:44;99212.94;;;26.65;42.29
11605;BME280;5858;43.076;25.626;2023-05-25T11:32:24;99107.69;;;25.69;42.69
11605;BME280;5858;43.076;25.626;2023-05-25T11:35:18;99133.91;;;26.10;41.67
11605;BME280;5858;43.076;25.626;2023-05-25T11:41:04;99091.13;;;26.32;37.94
11605;BME280;5858;43.076;25.626;2023-05-25T11:44:38;99136.88;;;26.66;38.91
11605;BME280;5858;43.076;25.626;2023-05-25T11:47:05;99145.66;;;27.29;38.11
11605;BME280;5858;43.076;25.626;2023-05-25T11:49:34;99015.13;;;26.57;34.28
11605;BME280;5858;43.076;25.626;2023-05-25T11:52:06;99149.16;;;27.35;34.97
11605;BME280;5858;43.076;25.626;2023-05-25T11:54:34;99086.84;;;26.50;33.42
11605;BME280;5858;43.076;25.626;2023-05-25T11:57:01;99190.06;;;26.94;35.06
11605;BME280;5858;43.076;25.626;2023-05-25T11:59:29;99093.69;;;25.71;36.88
11605;BME280;5858;43.076;25.626;2023-05-25T12:01:57;99198.25;;;25.88;38.28
11605;BME280;5858;43.076;25.626;2023-05-25T12:04:29;99115.75;;;25.06;39.17
11605;BME280;5858;43.076;25.626;2023-05-25T12:07:04;99122.47;;;24.75;40.58
11605;BME280;5858;43.076;25.626;2023-05-25T12:09:32;99089.66;;;24.70;42.36
11605;BME280;5858;43.076;25.626;2023-05-25T12:12:03;99032.84;;;24.46;43.02
11605;BME280;5858;43.076;25.626;2023-05-25T12:14:31;99181.28;;;25.42;44.12
11605;BME280;5858;43.076;25.626;2023-05-25T12:17:02;99202.16;;;25.33;44.72
11605;BME280;5858;43.076;25.626;2023-05-25T12:19:33;99104.66;;;24.83;45.12
11605;BME280;5858;43.076;25.626;2023-05-25T12:22:09;99123.53;;;24.84;44.48
11605;BME280;5858;43.076;25.626;2023-05-25T12:24:43;99163.44;;;25.00;43.96
11605;BME280;5858;43.076;25.626;2023-05-25T12:27:22;99100.50;;;24.90;45.03
11605;BME280;5858;43.076;25.626;2023-05-25T12:29:50;99164.19;;;25.16;44.43
11605;BME280;5858;43.076;25.626;2023-05-25T12:32:18;99057.44;;;24.52;43.26
11605;BME280;5858;43.076;25.626;2023-05-25T12:34:46;99187.25;;;25.54;43.23
11605;BME280;5858;43.076;25.626;2023-05-25T12:37:22;99232.00;;;25.84;44.51
11605;BME280;5858;43.076;25.626;2023-05-25T12:39:49;99135.19;;;25.49;45.64
11605;BME280;5858;43.076;25.626;2023-05-25T12:42:17;99168.75;;;26.09;45.25
11605;BME280;5858;43.076;25.626;2023-05-25T12:44:47;99048.84;;;25.57;45.51
11605;BME280;5858;43.076;25.626;2023-05-25T12:47:28;99115.00;;;26.08;44.41
11605;BME280;5858;43.076;25.626;2023-05-25T12:50:14;99194.47;;;26.71;44.58
11605;BME280;5858;43.076;25.626;2023-05-25T12:53:00;99149.38;;;26.77;44.46
11605;BME280;5858;43.076;25.626;2023-05-25T12:55:28;99102.50;;;26.50;44.55
11605;BME280;5858;43.076;25.626;2023-05-25T12:57:57;99049.00;;;26.23;45.29
11605;BME280;5858;43.076;25.626;2023-05-25T13:00:33;99193.63;;;27.00;47.17
11605;BME280;5858;43.076;25.626;2023-05-25T13:03:04;99113.81;;;26.43;49.29
11605;BME280;5858;43.076;25.626;2023-05-25T13:05:36;99119.66;;;25.79;49.90
11605;BME280;5858;43.076;25.626;2023-05-25T13:08:04;99128.63;;;25.50;51.64
11605;BME280;5858;43.076;25.626;2023-05-25T13:10:32;99106.72;;;25.06;54.27
11605;BME280;5858;43.076;25.626;2023-05-25T13:13:01;99128.50;;;24.77;56.00
11605;BME280;5858;43.076;25.626;2023-05-25T13:15:29;99179.56;;;25.02;58.59
11605;BME280;5858;43.076;25.626;2023-05-25T13:18:02;99114.34;;;24.49;60.31
11605;BME280;5858;43.076;25.626;2023-05-25T13:20:29;99139.47;;;24.67;60.23
11605;BME280;5858;43.076;25.626;2023-05-25T13:22:58;99190.28;;;24.93;61.01
11605;BME280;5858;43.076;25.626;2023-05-25T13:25:29;99160.00;;;24.59;60.96
11605;BME280;5858;43.076;25.626;2023-05-25T13:27:57;99140.63;;;24.51;60.67
11605;BME280;5858;43.076;25.626;2023-05-25T13:30:31;99096.69;;;23.96;59.63
11605;BME280;5858;43.076;25.626;2023-05-25T13:32:59;99109.28;;;23.57;60.64
11605;BME280;5858;43.076;25.626;2023-05-25T13:35:26;99175.97;;;23.91;60.82
11605;BME280;5858;43.076;25.626;2023-05-25T13:38:07;99177.06;;;23.75;65.15
11605;BME280;5858;43.076;25.626;2023-05-25T13:40:35;99038.50;;;23.04;64.40
11605;BME280;5858;43.076;25.626;2023-05-25T13:43:07;99140.44;;;23.61;66.13
11605;BME280;5858;43.076;25.626;2023-05-25T13:45:35;99027.53;;;22.79;68.28
11605;BME280;5858;43.076;25.626;2023-05-25T13:48:03;99190.72;;;23.80;69.94
11605;BME280;5858;43.076;25.626;2023-05-25T13:50:30;99198.09;;;23.69;72.38
11605;BME280;5858;43.076;25.626;2023-05-25T13:53:00;99133.28;;;23.29;72.63
11605;BME280;5858;43.076;25.626;2023-05-25T13:55:28;99197.22;;;23.48;74.40
11605;BME280;5858;43.076;25.626;2023-05-25T13:57:58;99120.91;;;22.91;74.77
11605;BME280;5858;43.076;25.626;2023-05-25T14:00:25;99098.19;;;22.23;76.26
11605;BME280;5858;43.076;25.626;2023-05-25T14:02:53;99194.28;;;22.87;76.47
11605;BME280;5858;43.076;25.626;2023-05-25T14:05:20;99234.50;;;23.12;75.78
11605;BME280;5858;43.076;25.626;2023-05-25T14:07:49;99097.47;;;22.33;75.34
11605;BME280;5858;43.076;25.626;2023-05-25T14:10:18;99194.06;;;23.04;75.48
11605;BME280;5858;43.076;25.626;2023-05-25T14:12:46;99219.28;;;23.21;77.01
11605;BME280;5858;43.076;25.626;2023-05-25T14:15:13;99095.13;;;22.61;77.30
11605;BME280;5858;43.076;25.626;2023-05-25T14:17:41;99120.00;;;22.75;77.94
11605;BME280;5858;43.076;25.626;2023-05-25T14:20:08;99077.94;;;22.61;78.45
11605;BME280;5858;43.076;25.626;2023-05-25T14:22:40;99195.97;;;23.04;79.34
11605;BME280;5858;43.076;25.626;2023-05-25T14:25:10;99188.50;;;22.79;79.85
11605;BME280;5858;43.076;25.626;2023-05-25T14:27:46;99108.41;;;22.43;80.38
11605;BME280;5858;43.076;25.626;2023-05-25T14:33:45;99215.09;;;23.09;79.47
11605;BME280;5858;43.076;25.626;2023-05-25T14:36:28;99204.72;;;23.01;79.74
11605;BME280;5858;43.076;25.626;2023-05-25T14:38:56;99191.06;;;23.01;79.91
11605;BME280;5858;43.076;25.626;2023-05-25T14:41:32;99113.56;;;22.39;80.63
11605;BME280;5858;43.076;25.626;2023-05-25T14:44:02;99149.34;;;22.53;80.86
11605;BME280;5858;43.076;25.626;2023-05-25T14:46:33;99060.72;;;21.98;79.95
11605;BME280;5858;43.076;25.626;2023-05-25T14:49:03;99210.03;;;22.75;81.52
11605;BME280;5858;43.076;25.626;2023-05-25T14:51:30;99158.56;;;22.37;81.19
11605;BME280;5858;43.076;25.626;2023-05-25T14:54:00;99213.78;;;22.64;79.94
11605;BME280;5858;43.076;25.626;2023-05-25T14:56:30;99115.81;;;21.73;81.22
11605;BME280;5858;43.076;25.626;2023-05-25T14:58:58;99163.47;;;21.71;81.39
11605;BME280;5858;43.076;25.626;2023-05-25T15:01:31;99118.53;;;21.36;82.74
11605;BME280;5858;43.076;25.626;2023-05-25T15:04:05;99216.03;;;21.98;81.76
11605;BME280;5858;43.076;25.626;2023-05-25T15:06:37;99189.06;;;21.69;81.54
11605;BME280;5858;43.076;25.626;2023-05-25T15:09:12;99235.25;;;22.13;80.50
11605;BME280;5858;43.076;25.626;2023-05-25T15:11:44;99086.31;;;21.01;80.38
11605;BME280;5858;43.076;25.626;2023-05-25T15:14:12;99183.44;;;21.76;79.51
11605;BME280;5858;43.076;25.626;2023-05-25T15:16:48;99069.97;;;21.01;79.19
11605;BME280;5858;43.076;25.626;2023-05-25T15:19:24;99084.81;;;21.15;80.89
11605;BME280;5858;43.076;25.626;2023-05-25T15:25:19;99271.56;;;21.92;85.02
11605;BME280;5858;43.076;25.626;2023-05-25T15:27:52;99081.88;;;20.46;85.93
11605;BME280;5858;43.076;25.626;2023-05-25T15:30:20;99246.66;;;21.29;85.98
11605;BME280;5858;43.076;25.626;2023-05-25T15:32:50;99265.63;;;21.46;85.98
11605;BME280;5858;43.076;25.626;2023-05-25T15:35:22;99280.13;;;21.52;85.74
11605;BME280;5858;43.076;25.626;2023-05-25T15:37:55;99283.09;;;21.50;86.12
11605;BME280;5858;43.076;25.626;2023-05-25T15:40:23;99277.66;;;21.50;85.96
11605;BME280;5858;43.076;25.626;2023-05-25T15:42:50;99269.31;;;21.35;85.96
11605;BME280;5858;43.076;25.626;2023-05-25T15:45:17;99169.41;;;20.87;86.49
11605;BME280;5858;43.076;25.626;2023-05-25T15:47:47;99213.19;;;21.29;86.80
11605;BME280;5858;43.076;25.626;2023-05-25T15:50:16;99282.06;;;21.56;87.62
11605;BME280;5858;43.076;25.626;2023-05-25T15:52:47;99176.03;;;20.96;87.26
11605;BME280;5858;43.076;25.626;2023-05-25T15:55:14;99177.81;;;20.85;87.17
11605;BME280;5858;43.076;25.626;2023-05-25T15:57:42;99221.59;;;20.84;87.95
11605;BME280;5858;43.076;25.626;2023-05-25T16:00:14;99131.13;;;19.94;89.46
11605;BME280;5858;43.076;25.626;2023-05-25T16:02:42;99294.66;;;20.97;90.68
11605;BME280;5858;43.076;25.626;2023-05-25T16:05:20;99139.03;;;19.96;90.95
11605;BME280;5858;43.076;25.626;2023-05-25T16:11:37;99289.03;;;20.48;92.04
11605;BME280;5858;43.076;25.626;2023-05-25T16:14:05;99125.75;;;19.49;91.61
11605;BME280;5858;43.076;25.626;2023-05-25T16:16:37;99271.28;;;20.29;91.54
11605;BME280;5858;43.076;25.626;2023-05-25T16:19:09;99302.97;;;20.52;91.22
11605;BME280;5858;43.076;25.626;2023-05-25T16:21:52;99135.78;;;19.48;91.15
11605;BME280;5858;43.076;25.626;2023-05-25T16:24:22;99272.66;;;20.43;91.09